Time;durP1;ratioP1;P1;durP2;ratioP2;P2;SDS_P1;SDS_P2;PMS_P1;PMS_P2;Temp;Humidity;BMP_temperature;BMP_pressure;BME280_temperature;BME280_humidity;BME280_pressure;Samples;Min_cycle;Max_cycle;Signal;HPM_P1;HPM_P2
2024/04/17 00:01:12;;;;;;;1.42;0.90;;;;;;;;;;11198556;26;20475;-65
2024/04/17 00:06:13;;;;;;;1.20;1.00;;;;;;;;;;11197861;26;20015;-65
2024/04/17 00:11:14;;;;;;;0.85;0.75;;;;;;;;;;11198759;26;20078;-66
2024/04/17 00:16:16;;;;;;;0.95;0.85;;;;;;;;;;11198498;26;20039;-65
2024/04/17 00:21:17;;;;;;;3.33;0.70;;;;;;;;;;11197510;26;20106;-65
2024/04/17 00:26:18;;;;;;;1.85;0.95;;;;;;;;;;11196788;26;20393;-57
2024/04/17 00:31:19;;;;;;;2.58;0.82;;;;;;;;;;11198400;26;20035;-58
2024/04/17 00:36:20;;;;;;;0.93;0.93;;;;;;;;;;11176835;26;20003;-56
2024/04/17 00:41:21;;;;;;;2.20;0.75;;;;;;;;;;11196663;26;19995;-64
2024/04/17 00:46:22;;;;;;;1.40;0.80;;;;;;;;;;11196966;26;20491;-64
2024/04/17 00:51:24;;;;;;;1.25;0.70;;;;;;;;;;11196375;26;20098;-64
2024/04/17 00:56:25;;;;;;;4.10;0.70;;;;;;;;;;11197603;26;20038;-64
2024/04/17 01:01:26;;;;;;;0.80;0.80;;;;;;;;;;11166604;26;20036;-65
2024/04/17 01:06:28;;;;;;;1.27;0.70;;;;;;;;;;11196271;26;20024;-64
2024/04/17 01:11:39;;;;;;;0.70;0.70;;;;;;;;;;11196669;26;20368;-64
2024/04/17 01:16:41;;;;;;;1.90;0.88;;;;;;;;;;11195897;26;19999;-65
2024/04/17 01:21:42;;;;;;;0.60;0.60;;;;;;;;;;11193897;26;20347;-54
2024/04/17 01:26:43;;;;;;;0.52;0.50;;;;;;;;;;11190817;26;20081;-54
2024/04/17 01:31:44;;;;;;;0.70;0.70;;;;;;;;;;11196271;26;20380;-53
2024/04/17 01:36:45;;;;;;;1.08;0.60;;;;;;;;;;11196261;26;20093;-55
2024/04/17 01:41:46;;;;;;;1.70;0.88;;;;;;;;;;11195390;26;20231;-65
2024/04/17 01:46:47;;;;;;;0.60;0.60;;;;;;;;;;11194114;26;20031;-64
2024/04/17 01:51:48;;;;;;;0.60;0.60;;;;;;;;;;11194530;26;20120;-64
2024/04/17 01:56:51;;;;;;;2.78;0.80;;;;;;;;;;11195164;26;20032;-55
2024/04/17 02:01:52;;;;;;;0.65;0.60;;;;;;;;;;11193971;26;20011;-60
2024/04/17 02:06:53;;;;;;;1.77;0.60;;;;;;;;;;11164062;26;20073;-56
2024/04/17 02:11:54;;;;;;;1.13;0.60;;;;;;;;;;11193726;26;20011;-61
2024/04/17 02:16:56;;;;;;;2.33;0.77;;;;;;;;;;11194405;26;20543;-64
2024/04/17 02:21:57;;;;;;;1.20;0.55;;;;;;;;;;11197869;26;20015;-64
2024/04/17 02:26:58;;;;;;;1.23;0.90;;;;;;;;;;11202441;26;20345;-60
2024/04/17 02:31:59;;;;;;;2.05;0.70;;;;;;;;;;11198866;26;20368;-64
2024/04/17 02:37:00;;;;;;;0.60;0.60;;;;;;;;;;11201208;26;20094;-54
2024/04/17 02:42:01;;;;;;;0.57;0.57;;;;;;;;;;11194186;26;20036;-54
2024/04/17 02:47:02;;;;;;;0.60;0.60;;;;;;;;;;11146932;26;20012;-61
2024/04/17 02:52:04;;;;;;;3.63;0.80;;;;;;;;;;11169332;26;20097;-65
2024/04/17 02:57:05;;;;;;;0.85;0.68;;;;;;;;;;11176719;26;20011;-63
2024/04/17 03:02:06;;;;;;;0.50;0.50;;;;;;;;;;11177449;26;20454;-64
2024/04/17 03:07:07;;;;;;;0.73;0.73;;;;;;;;;;11178176;26;20105;-63
2024/04/17 03:12:08;;;;;;;1.17;0.90;;;;;;;;;;11194551;26;20032;-52
2024/04/17 03:17:10;;;;;;;0.50;0.50;;;;;;;;;;11161608;26;20754;-65
2024/04/17 03:22:11;;;;;;;1.30;0.80;;;;;;;;;;11152656;26;20003;-54
2024/04/17 03:27:12;;;;;;;0.60;0.60;;;;;;;;;;11125190;26;20000;-54
2024/04/17 03:32:13;;;;;;;1.42;0.80;;;;;;;;;;11175100;26;20099;-60
2024/04/17 03:37:14;;;;;;;0.55;0.55;;;;;;;;;;11155004;26;20362;-54
2024/04/17 03:42:15;;;;;;;2.33;0.60;;;;;;;;;;11198725;26;20036;-64
2024/04/17 03:47:16;;;;;;;1.00;0.60;;;;;;;;;;11179554;26;20036;-59
2024/04/17 03:52:17;;;;;;;2.42;0.80;;;;;;;;;;11155274;26;20024;-61
2024/04/17 03:57:18;;;;;;;0.60;0.60;;;;;;;;;;11173301;26;20039;-64
2024/04/17 04:02:20;;;;;;;0.60;0.60;;;;;;;;;;11181908;26;20087;-54
2024/04/17 04:07:21;;;;;;;2.60;0.60;;;;;;;;;;11192182;26;20045;-54
2024/04/17 04:12:23;;;;;;;0.65;0.63;;;;;;;;;;11175293;26;20003;-54
2024/04/17 04:17:24;;;;;;;4.38;0.70;;;;;;;;;;11175930;26;20409;-64
2024/04/17 04:22:25;;;;;;;0.52;0.52;;;;;;;;;;11187000;26;20091;-64
2024/04/17 04:27:27;;;;;;;0.60;0.60;;;;;;;;;;11187744;26;20014;-53
2024/04/17 04:32:28;;;;;;;1.05;0.68;;;;;;;;;;11175694;26;20343;-63
2024/04/17 04:37:30;;;;;;;0.75;0.60;;;;;;;;;;11197544;26;20023;-64
2024/04/17 04:42:31;;;;;;;0.50;0.50;;;;;;;;;;11195213;26;20011;-64
2024/04/17 04:47:32;;;;;;;0.98;0.65;;;;;;;;;;11197330;26;20419;-64
2024/04/17 04:52:33;;;;;;;0.73;0.70;;;;;;;;;;11182039;26;20031;-54
2024/04/17 04:57:34;;;;;;;0.68;0.68;;;;;;;;;;11197753;26;20122;-63
2024/04/17 05:02:35;;;;;;;0.50;0.50;;;;;;;;;;11194951;26;20041;-54
2024/04/17 05:07:37;;;;;;;1.65;0.70;;;;;;;;;;11155752;26;20019;-56
2024/04/17 05:12:38;;;;;;;0.70;0.68;;;;;;;;;;11149606;26;20000;-55
2024/04/17 05:17:40;;;;;;;0.60;0.60;;;;;;;;;;11192461;26;20352;-53
2024/04/17 05:22:41;;;;;;;3.60;0.77;;;;;;;;;;11168952;26;20039;-50
2024/04/17 05:27:42;;;;;;;7.13;0.80;;;;;;;;;;11181432;26;20463;-50
2024/04/17 05:32:47;;;;;;;6.05;1.08;;;;;;;;;;11170184;26;20101;-52
2024/04/17 05:37:48;;;;;;;9.85;1.25;;;;;;;;;;11164667;26;20085;-53
2024/04/17 05:42:49;;;;;;;0.68;0.68;;;;;;;;;;11189192;26;20000;-53
2024/04/17 05:47:50;;;;;;;5.30;1.50;;;;;;;;;;11172697;26;20015;-54
2024/04/17 05:52:51;;;;;;;2.67;1.45;;;;;;;;;;11179648;26;20044;-53
2024/04/17 05:57:52;;;;;;;2.75;1.42;;;;;;;;;;11188530;26;20460;-52
2024/04/17 06:02:53;;;;;;;2.15;1.10;;;;;;;;;;11191156;26;20027;-52
2024/04/17 06:07:54;;;;;;;4.00;1.13;;;;;;;;;;11198825;26;19995;-52
2024/04/17 06:12:55;;;;;;;9.52;1.50;;;;;;;;;;11194261;26;20011;-52
2024/04/17 06:17:57;;;;;;;6.68;1.38;;;;;;;;;;11197435;26;20451;-51
2024/04/17 06:22:58;;;;;;;4.15;1.02;;;;;;;;;;11194121;26;20458;-52
2024/04/17 06:27:59;;;;;;;2.70;1.73;;;;;;;;;;11196850;26;20381;-52
2024/04/17 06:33:00;;;;;;;2.83;1.27;;;;;;;;;;11176061;26;20106;-50
2024/04/17 06:38:02;;;;;;;4.13;1.20;;;;;;;;;;11196577;26;20023;-52
2024/04/17 06:43:03;;;;;;;5.55;1.70;;;;;;;;;;11200047;26;20015;-52
2024/04/17 06:48:07;;;;;;;8.95;1.42;;;;;;;;;;11198381;26;20003;-53
2024/04/17 06:53:10;;;;;;;7.13;1.40;;;;;;;;;;11180933;26;19999;-51
2024/04/17 06:58:11;;;;;;;2.88;1.05;;;;;;;;;;11197879;26;20197;-53
2024/04/17 07:03:13;;;;;;;2.25;1.15;;;;;;;;;;11197066;26;20072;-55
2024/04/17 07:08:14;;;;;;;2.05;1.10;;;;;;;;;;11181568;26;20430;-50
2024/04/17 07:13:15;;;;;;;3.05;1.08;;;;;;;;;;11185826;26;20031;-54
2024/04/17 07:18:16;;;;;;;1.67;0.95;;;;;;;;;;11186726;26;20039;-55
2024/04/17 07:23:17;;;;;;;5.43;1.30;;;;;;;;;;11175863;26;20110;-52
2024/04/17 07:28:18;;;;;;;6.45;1.20;;;;;;;;;;11197924;26;20080;-59
2024/04/17 07:33:19;;;;;;;4.85;1.33;;;;;;;;;;11173285;26;20023;-52
2024/04/17 07:38:21;;;;;;;1.45;0.90;;;;;;;;;;11197956;26;20041;-53
2024/04/17 07:43:22;;;;;;;4.43;1.27;;;;;;;;;;11172533;26;20035;-53
2024/04/17 07:48:24;;;;;;;2.22;0.98;;;;;;;;;;11195038;26;20007;-60
2024/04/17 07:53:25;;;;;;;2.60;1.30;;;;;;;;;;11170519;26;20023;-53
2024/04/17 07:58:26;;;;;;;6.65;1.15;;;;;;;;;;11190812;26;20000;-57
2024/04/17 08:03:27;;;;;;;3.67;1.35;;;;;;;;;;11198571;26;20399;-51
2024/04/17 08:08:28;;;;;;;2.63;1.15;;;;;;;;;;11154676;26;20003;-57
2024/04/17 08:13:29;;;;;;;3.17;1.38;;;;;;;;;;11187592;26;20451;-52
2024/04/17 08:18:30;;;;;;;2.15;1.27;;;;;;;;;;11174925;26;20003;-55
2024/04/17 08:23:32;;;;;;;2.25;1.13;;;;;;;;;;11149024;26;20130;-56
2024/04/17 08:28:33;;;;;;;1.15;0.93;;;;;;;;;;11195305;26;20031;-54
2024/04/17 08:33:34;;;;;;;2.08;1.00;;;;;;;;;;11149419;26;20035;-55
2024/04/17 08:38:35;;;;;;;2.35;1.00;;;;;;;;;;11174196;26;19999;-52
2024/04/17 08:43:37;;;;;;;1.60;1.00;;;;;;;;;;11194895;26;20427;-52
2024/04/17 08:48:40;;;;;;;8.65;1.27;;;;;;;;;;11171534;26;20092;-51
2024/04/17 08:53:41;;;;;;;2.53;1.00;;;;;;;;;;11139519;26;19999;-52
2024/04/17 08:58:46;;;;;;;3.88;1.10;;;;;;;;;;11178506;26;20073;-52
2024/04/17 09:03:48;;;;;;;3.20;1.40;;;;;;;;;;11180881;26;20010;-51
2024/04/17 09:08:50;;;;;;;1.92;1.00;;;;;;;;;;11194344;26;19996;-60
2024/04/17 09:13:52;;;;;;;4.03;1.10;;;;;;;;;;11164560;26;20555;-55
2024/04/17 09:18:54;;;;;;;4.75;1.23;;;;;;;;;;11193024;26;20003;-52
2024/04/17 09:23:55;;;;;;;5.72;1.02;;;;;;;;;;11183042;26;20006;-49
2024/04/17 09:28:56;;;;;;;5.13;1.20;;;;;;;;;;11168951;26;20316;-51
2024/04/17 09:34:01;;;;;;;5.25;0.90;;;;;;;;;;11180086;26;20049;-51
2024/04/17 09:39:11;;;;;;;1.38;1.00;;;;;;;;;;11169556;26;19999;-49
2024/04/17 09:44:15;;;;;;;2.63;1.15;;;;;;;;;;11168112;26;20430;-54
2024/04/17 09:49:19;;;;;;;3.10;0.90;;;;;;;;;;11143384;26;20028;-57
2024/04/17 09:54:22;;;;;;;3.78;1.17;;;;;;;;;;11181730;26;20000;-51
2024/04/17 09:59:24;;;;;;;4.55;1.13;;;;;;;;;;11190020;26;20181;-53
2024/04/17 10:04:27;;;;;;;5.20;1.25;;;;;;;;;;11190831;26;20027;-52
2024/04/17 10:09:30;;;;;;;2.38;1.27;;;;;;;;;;11161729;26;19996;-49
2024/04/17 10:14:32;;;;;;;1.88;1.10;;;;;;;;;;11190924;26;20430;-59
2024/04/17 10:19:34;;;;;;;3.75;1.17;;;;;;;;;;11156020;26;20596;-52
2024/04/17 10:24:35;;;;;;;3.05;1.20;;;;;;;;;;11157275;26;20522;-58
2024/04/17 10:29:36;;;;;;;4.63;1.35;;;;;;;;;;11191276;26;20018;-56
2024/04/17 10:34:53;;;;;;;3.42;1.20;;;;;;;;;;11192420;26;20014;-51
2024/04/17 10:39:55;;;;;;;3.00;1.10;;;;;;;;;;11172009;26;20478;-52
2024/04/17 10:44:56;;;;;;;2.80;0.98;;;;;;;;;;11192658;26;20003;-58
2024/04/17 10:49:59;;;;;;;1.17;1.00;;;;;;;;;;11190210;26;20000;-53
2024/04/17 10:55:05;;;;;;;2.13;1.05;;;;;;;;;;11183542;26;19999;-52
2024/04/17 11:00:07;;;;;;;2.20;1.30;;;;;;;;;;11175434;26;20085;-54
2024/04/17 11:05:08;;;;;;;5.28;1.13;;;;;;;;;;11181085;26;19996;-52
2024/04/17 11:10:12;;;;;;;3.35;1.02;;;;;;;;;;11181996;26;20068;-52
2024/04/17 11:15:13;;;;;;;3.13;1.17;;;;;;;;;;11145256;26;20338;-51
2024/04/17 11:20:16;;;;;;;2.75;1.00;;;;;;;;;;11181463;26;19999;-60
2024/04/17 11:25:19;;;;;;;6.00;1.10;;;;;;;;;;11147056;26;20291;-52
2024/04/17 11:30:20;;;;;;;1.65;1.10;;;;;;;;;;11150993;26;20428;-56
2024/04/17 11:35:21;;;;;;;2.55;1.35;;;;;;;;;;11179958;26;20083;-53
2024/04/17 11:40:22;;;;;;;1.30;0.90;;;;;;;;;;11178395;26;20035;-56
2024/04/17 11:45:23;;;;;;;2.08;1.50;;;;;;;;;;11174256;26;20010;-51
2024/04/17 11:50:24;;;;;;;2.88;1.20;;;;;;;;;;11182147;26;20014;-54
2024/04/17 11:55:26;;;;;;;3.97;0.95;;;;;;;;;;11196592;26;20451;-53
2024/04/17 12:00:27;;;;;;;3.80;1.38;;;;;;;;;;11194062;26;20027;-58
2024/04/17 12:05:28;;;;;;;2.83;1.20;;;;;;;;;;11194304;26;20035;-50
2024/04/17 12:10:29;;;;;;;1.60;1.00;;;;;;;;;;11138232;26;20490;-53
2024/04/17 12:15:30;;;;;;;2.25;1.10;;;;;;;;;;11183591;26;20015;-53
2024/04/17 12:20:32;;;;;;;1.35;1.02;;;;;;;;;;11189326;26;20508;-57
2024/04/17 12:30:52;;;;;;;1.98;1.15;;;;;;;;;;11194855;26;20007;-49
2024/04/17 12:35:55;;;;;;;0.80;0.80;;;;;;;;;;11195764;26;20014;-53
2024/04/17 12:40:56;;;;;;;8.93;1.50;;;;;;;;;;11193747;26;19996;-51
2024/04/17 12:45:57;;;;;;;2.33;1.13;;;;;;;;;;11194954;26;20386;-51
2024/04/17 12:50:59;;;;;;;3.38;1.17;;;;;;;;;;11181721;26;20024;-52
2024/04/17 12:56:00;;;;;;;8.15;1.10;;;;;;;;;;11192020;26;19999;-52
2024/04/17 13:01:04;;;;;;;4.05;1.08;;;;;;;;;;11194712;26;20074;-51
2024/04/17 13:06:06;;;;;;;3.50;0.95;;;;;;;;;;11190415;26;20146;-51
2024/04/17 13:11:08;;;;;;;2.80;1.23;;;;;;;;;;11196336;26;20000;-51
2024/04/17 13:16:09;;;;;;;1.80;1.20;;;;;;;;;;11188846;26;20011;-50
2024/04/17 13:21:10;;;;;;;1.67;0.98;;;;;;;;;;11194744;26;19999;-50
2024/04/17 13:26:11;;;;;;;6.90;1.33;;;;;;;;;;11124454;21;20439;-62
2024/04/17 13:31:12;;;;;;;3.20;1.23;;;;;;;;;;11100390;26;20622;-59
2024/04/17 13:36:14;;;;;;;1.80;1.30;;;;;;;;;;11040692;26;20001;-62
2024/04/17 13:41:16;;;;;;;1.83;0.90;;;;;;;;;;11044034;26;20410;-61
2024/04/17 13:46:19;;;;;;;1.73;0.95;;;;;;;;;;11075353;26;20003;-62
2024/04/17 13:51:20;;;;;;;4.18;1.70;;;;;;;;;;11052937;26;20018;-62
2024/04/17 13:56:23;;;;;;;8.02;1.58;;;;;;;;;;10986228;26;20104;-63
2024/04/17 14:01:24;;;;;;;6.95;1.33;;;;;;;;;;11062810;26;20006;-62
2024/04/17 14:06:30;;;;;;;2.65;1.40;;;;;;;;;;11026142;26;20019;-63
2024/04/17 14:11:31;;;;;;;7.75;1.30;;;;;;;;;;11030159;26;20052;-63
2024/04/17 14:16:33;;;;;;;2.45;1.00;;;;;;;;;;11049745;26;20053;-62
2024/04/17 14:21:34;;;;;;;4.03;1.20;;;;;;;;;;11054000;26;20012;-61
2024/04/17 14:26:35;;;;;;;3.28;1.40;;;;;;;;;;11054702;26;20325;-58
2024/04/17 14:31:37;;;;;;;0.90;0.77;;;;;;;;;;11035327;26;20044;-60
2024/04/17 14:36:38;;;;;;;2.25;1.15;;;;;;;;;;11075894;26;20057;-61
2024/04/17 14:41:39;;;;;;;4.05;1.05;;;;;;;;;;11079548;26;20000;-61
2024/04/17 14:46:42;;;;;;;4.40;1.00;;;;;;;;;;11032409;26;20680;-61
2024/04/17 14:51:43;;;;;;;2.05;0.90;;;;;;;;;;11026166;26;20041;-61
2024/04/17 14:56:44;;;;;;;1.40;1.00;;;;;;;;;;11047797;26;20016;-61
2024/04/17 15:01:46;;;;;;;2.85;1.20;;;;;;;;;;11090723;26;20019;-60
2024/04/17 15:06:49;;;;;;;3.42;0.93;;;;;;;;;;11051794;26;20470;-59
2024/04/17 15:11:50;;;;;;;2.13;1.00;;;;;;;;;;11051356;26;20021;-60
2024/04/17 15:16:51;;;;;;;1.63;1.00;;;;;;;;;;11049827;26;20082;-60
2024/04/17 15:21:53;;;;;;;1.35;1.00;;;;;;;;;;11045953;26;20001;-61
2024/04/17 15:26:55;;;;;;;3.03;0.93;;;;;;;;;;11036547;26;20015;-62
2024/04/17 15:31:56;;;;;;;1.00;0.90;;;;;;;;;;11047332;26;20001;-61
2024/04/17 15:36:57;;;;;;;0.82;0.70;;;;;;;;;;11050541;26;20104;-61
2024/04/17 15:41:58;;;;;;;1.58;1.00;;;;;;;;;;11024755;26;20029;-62
2024/04/17 15:46:59;;;;;;;1.13;0.82;;;;;;;;;;11033732;26;20019;-59
2024/04/17 15:52:01;;;;;;;1.27;0.88;;;;;;;;;;11037662;26;20467;-62
2024/04/17 15:57:02;;;;;;;2.50;0.98;;;;;;;;;;11042063;26;20005;-61
2024/04/17 16:02:03;;;;;;;2.35;1.00;;;;;;;;;;11014020;26;20541;-62
2024/04/17 16:07:04;;;;;;;3.00;0.93;;;;;;;;;;11046401;26;20484;-61
2024/04/17 16:12:06;;;;;;;2.58;0.98;;;;;;;;;;11031322;26;19998;-62
2024/04/17 16:17:07;;;;;;;2.45;1.08;;;;;;;;;;11021170;26;20047;-62
2024/04/17 16:22:08;;;;;;;2.20;1.10;;;;;;;;;;11024615;26;20033;-62
2024/04/17 16:27:10;;;;;;;2.25;1.05;;;;;;;;;;11020862;26;20005;-61
2024/04/17 16:32:11;;;;;;;1.95;1.13;;;;;;;;;;11029110;26;20077;-61
2024/04/17 16:37:12;;;;;;;0.88;0.88;;;;;;;;;;11049761;26;20429;-61
2024/04/17 16:42:13;;;;;;;1.08;0.80;;;;;;;;;;11034150;26;20016;-61
2024/04/17 16:47:16;;;;;;;1.85;0.90;;;;;;;;;;11038086;26;20029;-61
2024/04/17 16:52:17;;;;;;;7.18;1.30;;;;;;;;;;11043701;26;20281;-61
2024/04/17 16:57:18;;;;;;;2.50;0.73;;;;;;;;;;11032322;26;20012;-60
2024/04/17 17:02:20;;;;;;;17.55;1.30;;;;;;;;;;11022662;26;20008;-61
2024/04/17 17:07:22;;;;;;;1.33;0.93;;;;;;;;;;11059116;26;20015;-60
2024/04/17 17:12:23;;;;;;;2.42;1.25;;;;;;;;;;11046935;26;20047;-63
2024/04/17 17:17:24;;;;;;;2.58;1.13;;;;;;;;;;11023710;26;20576;-60
2024/04/17 17:22:26;;;;;;;2.05;0.90;;;;;;;;;;11054920;26;20002;-63
2024/04/17 17:27:28;;;;;;;0.82;0.82;;;;;;;;;;11016982;26;19998;-61
2024/04/17 17:32:29;;;;;;;1.88;1.00;;;;;;;;;;11035314;26;20001;-63
2024/04/17 17:37:30;;;;;;;0.95;0.82;;;;;;;;;;11011602;26;20064;-62
2024/04/17 17:42:31;;;;;;;1.73;1.00;;;;;;;;;;11042873;26;20069;-60
2024/04/17 17:47:32;;;;;;;1.40;0.80;;;;;;;;;;11021705;26;20029;-61
2024/04/17 17:52:33;;;;;;;0.88;0.88;;;;;;;;;;11045401;26;20311;-59
2024/04/17 17:57:35;;;;;;;1.13;0.80;;;;;;;;;;11040277;26;20103;-63
2024/04/17 18:02:36;;;;;;;0.80;0.80;;;;;;;;;;11033880;26;20028;-62
2024/04/17 18:07:39;;;;;;;2.83;0.88;;;;;;;;;;11049005;26;20078;-63
2024/04/17 18:12:43;;;;;;;3.08;0.90;;;;;;;;;;11045465;26;20005;-62
2024/04/17 18:17:45;;;;;;;1.88;0.80;;;;;;;;;;11027001;26;20684;-62
2024/04/17 18:22:46;;;;;;;2.05;0.90;;;;;;;;;;11015937;26;20002;-61
2024/04/17 18:27:47;;;;;;;0.95;0.70;;;;;;;;;;11010590;26;20529;-63
2024/04/17 18:32:48;;;;;;;2.05;0.98;;;;;;;;;;11029873;26;20001;-62
2024/04/17 18:37:55;;;;;;;1.52;0.80;;;;;;;;;;11026560;26;20001;-63
2024/04/17 18:42:59;;;;;;;1.10;0.80;;;;;;;;;;11029811;26;20040;-62
2024/04/17 18:48:00;;;;;;;2.28;1.00;;;;;;;;;;11026757;26;20423;-62
2024/04/17 18:53:01;;;;;;;4.95;0.93;;;;;;;;;;11021533;26;20079;-62
2024/04/17 18:58:03;;;;;;;15.15;1.10;;;;;;;;;;10997493;26;20457;-62
2024/04/17 19:03:04;;;;;;;3.28;0.90;;;;;;;;;;11001580;26;20093;-62
2024/04/17 19:08:05;;;;;;;3.42;0.70;;;;;;;;;;11008941;26;20640;-60
2024/04/17 19:13:06;;;;;;;2.35;1.10;;;;;;;;;;11042620;26;20482;-62
2024/04/17 19:18:07;;;;;;;0.60;0.60;;;;;;;;;;11029519;26;20078;-62
2024/04/17 19:23:09;;;;;;;2.10;0.90;;;;;;;;;;11023001;26;20005;-60
2024/04/17 19:28:10;;;;;;;1.05;0.90;;;;;;;;;;11013831;26;20087;-62
2024/04/17 19:33:11;;;;;;;4.45;0.98;;;;;;;;;;11036482;26;20005;-62
2024/04/17 19:38:12;;;;;;;1.48;1.02;;;;;;;;;;11040276;26;20351;-63
2024/04/17 19:43:13;;;;;;;10.80;1.30;;;;;;;;;;11034180;26;20001;-62
2024/04/17 19:48:15;;;;;;;6.18;1.27;;;;;;;;;;11024265;26;20005;-59
2024/04/17 19:53:16;;;;;;;5.18;1.33;;;;;;;;;;11026059;26;20029;-63
2024/04/17 19:58:17;;;;;;;3.53;1.27;;;;;;;;;;11036033;26;19997;-63
2024/04/17 20:03:19;;;;;;;3.35;1.15;;;;;;;;;;11033259;26;20074;-59
2024/04/17 20:08:21;;;;;;;7.57;1.60;;;;;;;;;;11048405;26;20001;-63
2024/04/17 20:13:22;;;;;;;3.30;1.30;;;;;;;;;;11141731;21;20001;-62
2024/04/17 20:18:23;;;;;;;14.15;1.73;;;;;;;;;;11121462;26;20027;-61
2024/04/17 20:23:25;;;;;;;2.30;1.15;;;;;;;;;;11118913;26;20000;-61
2024/04/17 20:28:26;;;;;;;3.33;0.98;;;;;;;;;;11124744;26;20004;-62
2024/04/17 20:33:30;;;;;;;3.65;1.20;;;;;;;;;;11125167;26;20438;-61
2024/04/17 20:38:32;;;;;;;2.10;1.10;;;;;;;;;;11120920;26;20004;-61
2024/04/17 20:43:35;;;;;;;2.25;1.13;;;;;;;;;;11120660;26;20360;-61
2024/04/17 20:48:38;;;;;;;2.70;1.23;;;;;;;;;;11121327;26;20004;-62
2024/04/17 20:53:40;;;;;;;4.13;1.23;;;;;;;;;;11123257;26;20511;-61
2024/04/17 20:58:41;;;;;;;3.70;1.10;;;;;;;;;;11118823;26;19996;-61
2024/04/17 21:03:42;;;;;;;2.55;0.98;;;;;;;;;;11119363;26;20115;-63
2024/04/17 21:08:44;;;;;;;5.15;1.13;;;;;;;;;;11114905;26;20427;-62
2024/04/17 21:13:45;;;;;;;2.90;1.08;;;;;;;;;;11118540;26;20134;-62
2024/04/17 21:18:47;;;;;;;6.78;1.25;;;;;;;;;;11115627;26;20008;-62
2024/04/17 21:23:48;;;;;;;2.75;1.15;;;;;;;;;;11117552;26;20459;-61
2024/04/17 21:28:49;;;;;;;5.90;1.17;;;;;;;;;;11079712;26;20096;-63
2024/04/17 21:33:51;;;;;;;11.02;1.83;;;;;;;;;;11104860;26;20009;-61
2024/04/17 21:38:52;;;;;;;20.55;1.80;;;;;;;;;;11107873;26;20050;-59
2024/04/17 21:43:54;;;;;;;5.75;1.40;;;;;;;;;;11105957;26;20102;-63
2024/04/17 21:48:56;;;;;;;9.07;1.45;;;;;;;;;;11090167;26;20100;-65
2024/04/17 21:53:57;;;;;;;7.80;1.80;;;;;;;;;;11116018;26;20019;-65
2024/04/17 21:58:58;;;;;;;11.73;1.83;;;;;;;;;;11095711;26;20123;-65
2024/04/17 22:04:00;;;;;;;7.10;1.45;;;;;;;;;;11110782;26;20015;-61
2024/04/17 22:09:01;;;;;;;7.28;1.60;;;;;;;;;;11119577;26;19996;-62
2024/04/17 22:14:02;;;;;;;12.38;1.83;;;;;;;;;;11094785;26;20435;-62
2024/04/17 22:19:03;;;;;;;16.17;1.20;;;;;;;;;;11087977;26;20004;-63
2024/04/17 22:24:05;;;;;;;5.18;1.20;;;;;;;;;;11102731;26;22105;-63
2024/04/17 22:29:06;;;;;;;8.02;1.75;;;;;;;;;;11093245;26;20048;-64
2024/04/17 22:34:07;;;;;;;13.27;1.83;;;;;;;;;;11092174;26;20011;-65
2024/04/17 22:39:11;;;;;;;5.47;1.33;;;;;;;;;;11093870;26;20012;-63
2024/04/17 22:44:12;;;;;;;7.13;1.70;;;;;;;;;;11122815;26;20529;-66
2024/04/17 22:49:13;;;;;;;3.28;1.30;;;;;;;;;;11118706;26;20081;-66
2024/04/17 22:54:14;;;;;;;6.45;1.65;;;;;;;;;;11124148;26;20377;-67
2024/04/17 22:59:16;;;;;;;6.43;1.70;;;;;;;;;;11124167;26;20077;-66
2024/04/17 23:04:17;;;;;;;3.22;1.38;;;;;;;;;;11120106;26;20460;-68
2024/04/17 23:09:18;;;;;;;7.68;1.27;;;;;;;;;;11123019;26;20000;-68
2024/04/17 23:14:19;;;;;;;3.28;1.10;;;;;;;;;;11122476;26;20004;-67
2024/04/17 23:19:20;;;;;;;4.78;1.35;;;;;;;;;;11122446;26;20072;-66
2024/04/17 23:24:21;;;;;;;3.97;1.15;;;;;;;;;;11115888;26;20459;-66
2024/04/17 23:29:22;;;;;;;5.47;1.42;;;;;;;;;;11124088;26;20000;-66
2024/04/17 23:34:23;;;;;;;3.80;1.27;;;;;;;;;;11123353;26;20042;-66
2024/04/17 23:39:26;;;;;;;4.85;1.50;;;;;;;;;;11122601;26;20008;-66
2024/04/17 23:44:27;;;;;;;5.82;1.58;;;;;;;;;;11120380;26;20000;-66
2024/04/17 23:49:29;;;;;;;4.97;1.00;;;;;;;;;;11101020;26;20031;-67
2024/04/17 23:54:30;;;;;;;2.28;1.38;;;;;;;;;;11122813;26;20022;-66
2024/04/17 23:59:31;;;;;;;2.42;1.00;;;;;;;;;;11091042;26;20051;-66
